createdAt,value
2022-09-02T05:52:47.206Z,40.73
2022-09-02T05:55:15.966Z,42.44
2022-09-02T05:57:46.555Z,41.87
2022-09-02T06:00:20.789Z,40.05
2022-09-02T06:03:02.656Z,41.02
2022-09-02T06:05:38.456Z,39.73
2022-09-02T06:08:06.711Z,39.71
2022-09-02T06:10:42.217Z,41.42
2022-09-02T06:13:11.649Z,40.49
2022-09-02T06:15:46.195Z,39.78
2022-09-02T06:18:14.454Z,39.74
2022-09-02T06:20:45.856Z,37.37
2022-09-02T06:23:15.114Z,38.00
2022-09-02T06:25:44.830Z,37.14
2022-09-02T06:28:14.295Z,39.48
2022-09-02T06:30:44.755Z,38.06
2022-09-02T06:33:12.491Z,39.38
2022-09-02T06:35:42.619Z,38.36
2022-09-02T06:38:11.921Z,38.75
2022-09-02T06:40:52.150Z,37.59
2022-09-02T06:43:21.755Z,38.16
2022-09-02T06:45:50.475Z,38.34
2022-09-02T06:48:18.046Z,36.82
2022-09-02T06:50:46.644Z,37.93
2022-09-02T06:53:14.933Z,38.14
2022-09-02T06:55:44.479Z,37.25
2022-09-02T06:58:14.086Z,37.25
2022-09-02T07:00:42.647Z,39.29
2022-09-02T07:03:50.194Z,38.99
2022-09-02T07:06:18.152Z,38.85
2022-09-02T07:08:46.020Z,38.14
2022-09-02T07:11:22.853Z,37.46
2022-09-02T07:13:51.568Z,38.20
2022-09-02T07:16:26.826Z,37.57
2022-09-02T07:18:58.589Z,38.03
2022-09-02T07:21:26.352Z,38.78
2022-09-02T07:23:54.012Z,38.62
2022-09-02T07:26:22.631Z,38.38
2022-09-02T07:28:51.115Z,38.14
2022-09-02T07:31:19.008Z,37.64
2022-09-02T07:33:49.912Z,37.30
2022-09-02T07:36:21.634Z,37.76
2022-09-02T07:38:49.698Z,38.24
2022-09-02T07:41:17.580Z,37.62
2022-09-02T07:43:50.987Z,36.99
2022-09-02T07:46:20.317Z,37.11
2022-09-02T07:48:50.225Z,37.71
2022-09-02T07:51:19.232Z,37.33
2022-09-02T07:53:48.143Z,37.38
2022-09-02T07:56:15.572Z,38.14
2022-09-02T07:58:44.368Z,38.35
2022-09-02T08:01:13.327Z,38.29
2022-09-02T08:03:44.345Z,37.87
2022-09-02T08:06:14.029Z,37.69
2022-09-02T08:08:42.826Z,36.88
2022-09-02T08:11:10.540Z,36.30
2022-09-02T08:13:38.059Z,35.27
2022-09-02T08:16:06.302Z,35.17
2022-09-02T08:18:34.726Z,36.04
2022-09-02T08:21:02.599Z,35.02
2022-09-02T08:23:37.066Z,35.25
2022-09-02T08:26:05.679Z,34.42
2022-09-02T08:28:33.557Z,34.26
2022-09-02T08:31:05.152Z,34.21
2022-09-02T08:33:32.918Z,33.92
2022-09-02T08:36:11.976Z,32.33
2022-09-02T08:38:39.850Z,34.64
2022-09-02T08:41:28.691Z,35.66
2022-09-02T08:43:59.157Z,34.60
2022-09-02T08:46:28.848Z,34.59
2022-09-02T08:49:04.235Z,35.51
2022-09-02T08:51:37.704Z,33.30
2022-09-02T08:54:14.587Z,34.61
2022-09-02T08:56:42.341Z,36.20
2022-09-02T08:59:10.496Z,35.30
2022-09-02T09:01:56.514Z,35.79
2022-09-02T09:04:49.954Z,34.84
2022-09-02T09:07:27.462Z,34.08
2022-09-02T09:10:14.024Z,35.60
2022-09-02T09:13:04.087Z,35.64
2022-09-02T09:15:46.371Z,35.47
2022-09-02T09:18:17.631Z,35.91
2022-09-02T09:20:46.178Z,35.96
2022-09-02T09:23:34.452Z,34.32
2022-09-02T09:26:05.898Z,34.80
2022-09-02T09:28:40.946Z,34.43
2022-09-02T09:31:11.043Z,34.22
2022-09-02T09:33:38.554Z,34.05
2022-09-02T09:36:06.147Z,31.73
2022-09-02T09:38:36.705Z,31.10
2022-09-02T09:41:20.595Z,31.57
2022-09-02T09:43:48.394Z,33.85
2022-09-02T09:46:27.847Z,32.65
2022-09-02T09:48:55.839Z,32.39
2022-09-02T09:51:23.376Z,31.44
2022-09-02T09:53:51.170Z,31.37
2022-09-02T09:56:26.577Z,29.13
2022-09-02T09:58:54.278Z,30.74
2022-09-02T10:01:35.146Z,31.57
2022-09-02T10:04:42.178Z,30.80
2022-09-02T10:06:59.718Z,31.29
2022-09-02T10:09:32.698Z,31.00
2022-09-02T10:12:11.880Z,30.15
2022-09-02T10:14:43.488Z,30.74
2022-09-02T10:17:35.428Z,30.94
2022-09-02T10:20:09.178Z,30.20
2022-09-02T10:22:59.574Z,31.90
2022-09-02T10:25:47.003Z,32.18
2022-09-02T10:28:32.960Z,32.14
2022-09-02T10:31:35.002Z,33.59
2022-09-02T10:34:24.529Z,32.71
2022-09-02T10:37:18.487Z,34.27
2022-09-02T10:39:55.698Z,34.24
2022-09-02T10:42:39.678Z,34.53
2022-09-02T10:45:37.195Z,32.61
2022-09-02T10:48:23.779Z,32.53
2022-09-02T10:51:03.476Z,33.39
2022-09-02T10:53:59.781Z,32.82
2022-09-02T10:56:41.554Z,33.01
2022-09-02T10:59:24.552Z,34.53
2022-09-02T11:01:55.353Z,32.86
2022-09-02T11:04:39.404Z,32.72
2022-09-02T11:07:10.863Z,31.49
2022-09-02T11:09:46.264Z,31.35
2022-09-02T11:12:18.475Z,32.41
2022-09-02T11:14:56.191Z,33.67
2022-09-02T11:17:45.625Z,33.88
2022-09-02T11:20:21.338Z,32.92
2022-09-02T11:22:59.932Z,32.91
2022-09-02T11:25:37.441Z,31.57
2022-09-02T11:28:23.279Z,33.41
2022-09-02T11:30:56.197Z,31.06
2022-09-02T11:33:29.743Z,32.93
2022-09-02T11:35:58.875Z,32.59
2022-09-02T11:39:12.372Z,31.14
2022-09-02T11:42:05.157Z,33.01
2022-09-02T11:45:25.781Z,31.90
2022-09-02T11:48:34.391Z,30.75
2022-09-02T11:53:56.139Z,31.64
2022-09-02T11:56:29.037Z,31.36
2022-09-02T11:58:56.868Z,30.76
2022-09-02T12:01:31.715Z,30.77
2022-09-02T12:07:10.024Z,30.10
2022-09-02T12:09:51.369Z,29.75
2022-09-02T12:12:37.379Z,31.05
2022-09-02T12:15:05.546Z,29.60
2022-09-02T12:17:44.560Z,29.07
2022-09-02T12:20:38.756Z,30.11
2022-09-02T12:23:08.225Z,30.00
2022-09-02T12:25:38.646Z,29.32
2022-09-02T12:28:26.264Z,29.14
2022-09-02T12:31:07.723Z,30.41
2022-09-02T12:33:38.108Z,30.96
2022-09-02T12:36:07.487Z,30.23
2022-09-02T12:38:40.246Z,30.67
2022-09-02T12:41:34.535Z,30.68
2022-09-02T12:44:54.027Z,28.31
2022-09-02T12:47:41.012Z,30.70
2022-09-02T12:50:33.300Z,29.43
2022-09-02T12:53:29.896Z,30.70
2022-09-02T12:56:01.514Z,30.16
2022-09-02T12:58:52.580Z,30.74
2022-09-02T13:01:30.848Z,29.12
2022-09-02T13:04:17.129Z,29.94
2022-09-02T13:07:07.260Z,29.22
2022-09-02T13:10:00.988Z,31.28
2022-09-02T13:12:41.148Z,31.11
2022-09-02T13:15:24.248Z,31.58
2022-09-02T13:18:13.419Z,32.21
2022-09-02T13:20:56.752Z,31.14
2022-09-02T13:24:03.067Z,30.61
2022-09-02T13:26:49.638Z,30.88
2022-09-02T13:29:41.577Z,31.66
2022-09-02T13:32:22.206Z,31.02
2022-09-02T13:34:51.482Z,29.88
2022-09-02T13:37:36.803Z,29.90
2022-09-02T13:40:20.077Z,30.62
2022-09-02T13:42:53.504Z,31.29
2022-09-02T13:45:23.724Z,31.32
2022-09-02T13:47:57.365Z,30.85
2022-09-02T13:50:27.911Z,30.28
2022-09-02T13:55:55.798Z,31.03
2022-09-02T13:58:29.440Z,31.03
2022-09-02T14:01:02.056Z,31.54
2022-09-02T14:03:32.949Z,31.06
2022-09-02T14:06:00.981Z,31.67
2022-09-02T14:08:30.716Z,31.30
2022-09-02T14:10:58.521Z,31.91
2022-09-02T14:13:27.206Z,31.27
2022-09-02T14:15:55.381Z,32.00
2022-09-02T14:18:25.000Z,32.01
2022-09-02T14:21:04.238Z,30.97
2022-09-02T14:23:36.013Z,31.59
2022-09-02T14:26:04.468Z,31.27
2022-09-02T14:28:33.898Z,31.76
2022-09-02T14:31:07.074Z,31.24
2022-09-02T14:33:47.350Z,32.21
2022-09-02T14:36:23.880Z,33.42
2022-09-02T14:38:52.667Z,32.25
2022-09-02T14:41:27.437Z,33.03
2022-09-02T14:43:59.876Z,33.52
2022-09-02T14:46:36.753Z,33.44
2022-09-02T14:49:09.611Z,33.08
2022-09-02T14:51:45.778Z,34.22
2022-09-02T14:54:40.140Z,33.54
2022-09-02T14:57:28.492Z,33.25
2022-09-02T15:00:21.432Z,33.23
2022-09-02T15:02:56.316Z,33.79
2022-09-02T15:05:24.646Z,32.80
2022-09-02T15:07:52.454Z,33.59
2022-09-02T15:10:20.473Z,34.00
2022-09-02T15:12:50.660Z,33.79
2022-09-02T15:15:18.265Z,34.55
2022-09-02T15:17:45.698Z,34.43
2022-09-02T15:20:13.391Z,34.38
2022-09-02T15:22:40.779Z,34.26
2022-09-02T15:25:08.727Z,34.09
2022-09-02T15:27:37.101Z,34.40
2022-09-02T15:30:06.069Z,33.13
2022-09-02T15:32:33.657Z,32.34
2022-09-02T15:35:01.394Z,34.35
2022-09-02T15:37:29.017Z,33.43
2022-09-02T15:39:56.694Z,33.14
2022-09-02T15:42:24.509Z,35.69
2022-09-02T15:44:51.954Z,36.55
2022-09-02T15:47:21.359Z,37.48
2022-09-02T15:49:49.124Z,37.26
2022-09-02T15:52:16.567Z,37.42
2022-09-02T15:54:43.998Z,37.87
2022-09-02T15:57:11.688Z,37.84
2022-09-02T15:59:39.166Z,38.90
2022-09-02T16:02:07.013Z,38.58
2022-09-02T16:04:34.762Z,38.88
2022-09-02T16:07:02.941Z,39.54
2022-09-02T16:09:30.410Z,39.69
2022-09-02T16:11:58.116Z,40.46
2022-09-02T16:14:25.979Z,41.21
2022-09-02T16:16:54.951Z,41.71
2022-09-02T16:19:24.676Z,42.28
2022-09-02T16:21:52.906Z,41.84
2022-09-02T16:24:21.659Z,42.66
2022-09-02T16:26:50.706Z,43.29
2022-09-02T16:29:19.505Z,43.25
2022-09-02T16:32:14.050Z,43.05
2022-09-02T16:34:36.076Z,43.12
2022-09-02T16:37:03.521Z,43.71
2022-09-02T16:39:30.979Z,44.42
2022-09-02T16:42:04.147Z,44.08
2022-09-02T16:44:33.933Z,43.88
2022-09-02T16:47:01.789Z,43.53
2022-09-02T16:49:29.176Z,43.68
2022-09-02T16:51:58.122Z,44.09
2022-09-02T16:54:31.558Z,44.06
2022-09-02T16:57:01.175Z,44.48
2022-09-02T16:59:31.484Z,45.08
2022-09-02T17:01:59.217Z,44.34
2022-09-02T17:04:26.772Z,44.77
2022-09-02T17:06:54.545Z,44.98
2022-09-02T17:09:22.221Z,45.37
2022-09-02T17:11:49.649Z,46.14
2022-09-02T17:14:17.908Z,47.60
2022-09-02T17:16:47.919Z,46.03
2022-09-02T17:19:22.189Z,45.75
2022-09-02T17:21:52.648Z,46.46
2022-09-02T17:24:25.433Z,46.61
2022-09-02T17:26:55.857Z,47.37
2022-09-02T17:29:47.937Z,47.00
2022-09-02T17:32:13.126Z,48.02
2022-09-02T17:34:41.119Z,47.25
2022-09-02T17:37:08.632Z,47.12
2022-09-02T17:39:36.627Z,48.48
2022-09-02T17:42:05.338Z,48.93
2022-09-02T17:44:38.719Z,49.49
2022-09-02T17:47:08.403Z,49.05
2022-09-02T17:49:36.860Z,49.08
2022-09-02T17:52:05.515Z,49.49
2022-09-02T17:54:34.481Z,50.01
2022-09-02T17:57:23.488Z,50.56
2022-09-02T18:00:17.505Z,49.01
2022-09-02T18:03:03.825Z,50.55
2022-09-02T18:05:36.842Z,50.62
2022-09-02T18:08:26.037Z,50.76
2022-09-02T18:10:58.068Z,50.96
2022-09-02T18:13:47.626Z,51.64
2022-09-02T18:16:30.603Z,51.68
2022-09-02T18:19:07.100Z,51.81
2022-09-02T18:22:05.082Z,51.05
2022-09-02T18:24:55.559Z,52.25
2022-09-02T18:27:41.771Z,51.62
2022-09-02T18:30:13.794Z,51.67
2022-09-02T18:33:20.253Z,51.12
2022-09-02T18:36:28.747Z,50.78
2022-09-02T18:39:21.278Z,51.13
2022-09-02T18:42:01.271Z,52.47
2022-09-02T18:44:40.192Z,53.57
2022-09-02T18:47:32.684Z,52.95
2022-09-02T18:50:04.677Z,54.72
2022-09-02T18:52:32.677Z,55.46
2022-09-02T18:55:00.005Z,56.04
2022-09-02T18:57:33.536Z,56.03
2022-09-02T19:00:10.918Z,54.91
2022-09-02T19:02:51.488Z,53.73
2022-09-02T19:05:22.368Z,53.57
2022-09-02T19:08:19.117Z,53.73
2022-09-02T19:10:47.049Z,53.51
2022-09-02T19:13:15.250Z,53.34
2022-09-02T19:15:42.904Z,53.69
2022-09-02T19:18:11.904Z,55.41
2022-09-02T19:20:39.726Z,54.84
2022-09-02T19:23:08.294Z,54.55
2022-09-02T19:25:41.686Z,53.79
2022-09-02T19:28:10.202Z,54.06
2022-09-02T19:30:40.454Z,53.80
2022-09-02T19:33:09.763Z,54.94
2022-09-02T19:35:38.412Z,54.55
2022-09-02T19:38:06.600Z,54.87
2022-09-02T19:40:34.134Z,54.95
2022-09-02T19:43:05.793Z,54.52
2022-09-02T19:45:37.722Z,54.74
2022-09-02T19:48:17.006Z,54.47
2022-09-02T19:50:46.544Z,54.40
2022-09-02T19:53:27.975Z,54.26
2022-09-02T19:56:06.766Z,56.69
2022-09-02T19:58:35.615Z,55.59
2022-09-02T20:01:05.455Z,55.21
2022-09-02T20:03:34.080Z,56.24
2022-09-02T20:06:01.566Z,56.24
2022-09-02T20:08:31.076Z,56.63
2022-09-02T20:11:01.474Z,56.25
2022-09-02T20:13:30.136Z,56.68
2022-09-02T20:15:57.612Z,57.09
2022-09-02T20:18:26.926Z,58.10
2022-09-02T20:20:57.478Z,62.13
2022-09-02T20:23:26.722Z,60.91
2022-09-02T20:26:12.613Z,60.73
2022-09-02T20:29:02.808Z,59.92
2022-09-02T20:31:39.362Z,61.78
2022-09-02T20:34:36.779Z,61.25
2022-09-02T20:37:16.147Z,64.54
2022-09-02T20:40:12.199Z,66.16
2022-09-02T20:42:58.523Z,65.52
2022-09-02T20:45:38.649Z,67.71
2022-09-02T20:48:19.428Z,68.86
2022-09-02T20:51:01.778Z,69.06
2022-09-02T20:53:32.355Z,70.27
2022-09-02T20:56:18.915Z,70.21
2022-09-02T20:59:01.326Z,71.01
2022-09-02T21:01:35.740Z,70.41
2022-09-02T21:04:24.556Z,71.25
2022-09-02T21:06:57.856Z,67.52
2022-09-02T21:09:42.972Z,69.28
2022-09-02T21:12:19.612Z,69.93
2022-09-02T21:14:49.157Z,66.10
2022-09-02T21:17:21.614Z,63.92
2022-09-02T21:19:55.175Z,66.00
2022-09-02T21:22:30.896Z,71.62
2022-09-02T21:25:25.839Z,72.23
2022-09-02T21:28:09.683Z,73.98
2022-09-02T21:30:40.408Z,74.56
2022-09-02T21:33:14.157Z,76.18
2022-09-02T21:35:48.014Z,73.36
2022-09-02T21:38:20.882Z,75.87
2022-09-02T21:40:54.380Z,75.99
2022-09-02T21:43:34.851Z,76.72
2022-09-02T21:46:40.594Z,77.86
2022-09-02T21:49:33.836Z,77.09
2022-09-02T21:52:30.602Z,74.15
2022-09-02T21:55:07.002Z,74.66
2022-09-02T21:57:53.816Z,75.45
2022-09-02T22:00:23.314Z,75.50
2022-09-02T22:03:03.902Z,75.87
2022-09-02T22:05:50.345Z,76.99
2022-09-02T22:08:29.743Z,77.50
2022-09-02T22:11:14.083Z,77.17
2022-09-02T22:13:42.245Z,77.96
2022-09-02T22:16:31.066Z,77.77
2022-09-02T22:19:02.269Z,76.21
2022-09-02T22:21:38.160Z,78.78
2022-09-02T22:24:06.839Z,77.71
2022-09-02T22:26:39.606Z,77.58
2022-09-02T22:29:17.784Z,79.78
2022-09-02T22:31:45.879Z,78.98
2022-09-02T22:34:16.151Z,79.55
2022-09-02T22:37:07.943Z,79.65
2022-09-02T22:39:39.891Z,78.61
2022-09-02T22:42:21.384Z,77.82
2022-09-02T22:45:18.554Z,78.03
2022-09-02T22:48:08.998Z,79.91
2022-09-02T22:50:58.361Z,79.49
2022-09-02T22:53:28.845Z,79.87
2022-09-02T22:55:59.398Z,78.54
2022-09-02T22:59:11.039Z,80.58
2022-09-02T23:01:45.243Z,81.69
2022-09-02T23:04:21.608Z,80.20
2022-09-02T23:06:52.551Z,79.76
2022-09-02T23:09:20.195Z,79.46
2022-09-02T23:11:53.361Z,79.88
2022-09-02T23:14:44.564Z,79.71
2022-09-02T23:17:33.642Z,78.56
2022-09-02T23:20:12.680Z,79.01
2022-09-02T23:22:49.489Z,78.20
2022-09-02T23:25:40.956Z,80.95
2022-09-02T23:28:16.775Z,82.85
2022-09-02T23:31:19.597Z,83.75
2022-09-02T23:33:51.316Z,82.47
2022-09-02T23:36:35.121Z,83.13
2022-09-02T23:39:18.834Z,82.54
2022-09-02T23:41:47.867Z,81.92
2022-09-02T23:44:16.557Z,82.32
2022-09-02T23:46:56.446Z,83.45
2022-09-02T23:49:49.241Z,82.69
2022-09-02T23:52:56.311Z,81.34
2022-09-02T23:55:38.277Z,80.84
2022-09-02T23:58:33.753Z,81.60
